createdAt,value
2018-12-17T00:01:17.864Z,119.02
2018-12-17T00:03:45.450Z,97.37
2018-12-17T00:06:13.213Z,121.37
2018-12-17T00:08:41.782Z,85.30
2018-12-17T00:11:09.601Z,106.25
2018-12-17T00:13:37.080Z,90.62
2018-12-17T00:16:04.627Z,94.42
2018-12-17T00:18:32.085Z,89.15
2018-12-17T00:20:59.563Z,99.90
2018-12-17T00:23:26.981Z,116.75
2018-12-17T00:25:54.413Z,110.25
2018-12-17T00:28:21.925Z,102.80
2018-12-17T00:30:49.525Z,89.77
2018-12-17T00:33:16.939Z,92.27
2018-12-17T00:35:44.955Z,87.00
2018-12-17T00:38:13.078Z,98.35
2018-12-17T00:40:40.557Z,87.60
2018-12-17T00:43:08.074Z,88.50
2018-12-17T00:45:35.643Z,74.95
2018-12-17T00:48:04.286Z,79.00
2018-12-17T00:50:31.776Z,72.78
2018-12-17T00:52:59.233Z,69.05
2018-12-17T00:55:27.411Z,77.42
2018-12-17T00:57:54.883Z,83.70
2018-12-17T01:00:23.246Z,83.35
2018-12-17T01:02:50.951Z,66.92
2018-12-17T01:05:18.663Z,76.60
2018-12-17T01:07:46.368Z,83.82
2018-12-17T01:10:14.014Z,64.58
2018-12-17T01:12:41.529Z,83.03
2018-12-17T01:15:09.176Z,65.40
2018-12-17T01:17:36.723Z,71.50
2018-12-17T01:20:05.454Z,63.30
2018-12-17T01:22:33.007Z,90.35
2018-12-17T01:25:00.489Z,82.78
2018-12-17T01:27:28.003Z,65.55
2018-12-17T01:29:56.043Z,69.45
2018-12-17T01:32:23.541Z,56.90
2018-12-17T01:34:51.774Z,62.90
2018-12-17T01:37:19.310Z,61.65
2018-12-17T01:39:46.902Z,63.52
2018-12-17T01:42:14.485Z,59.15
2018-12-17T01:44:41.934Z,57.93
2018-12-17T01:47:09.401Z,61.60
2018-12-17T01:49:36.930Z,58.50
2018-12-17T01:52:04.526Z,70.78
2018-12-17T01:54:32.040Z,68.83
2018-12-17T01:56:59.529Z,70.05
2018-12-17T01:59:26.937Z,69.45
2018-12-17T02:01:54.516Z,70.57
2018-12-17T02:04:22.046Z,61.20
2018-12-17T02:06:49.555Z,60.63
2018-12-17T02:09:17.022Z,71.20
2018-12-17T02:11:46.115Z,61.25
2018-12-17T02:14:14.502Z,71.37
2018-12-17T02:16:42.063Z,68.30
2018-12-17T02:19:09.534Z,63.17
2018-12-17T02:21:37.509Z,65.08
2018-12-17T02:24:04.932Z,65.87
2018-12-17T02:26:32.619Z,63.23
2018-12-17T02:29:00.126Z,67.55
2018-12-17T02:31:27.641Z,66.62
2018-12-17T02:33:55.264Z,64.42
2018-12-17T02:36:23.090Z,58.05
2018-12-17T02:38:50.527Z,54.00
2018-12-17T02:41:17.998Z,61.10
2018-12-17T02:43:46.258Z,62.58
2018-12-17T02:46:13.658Z,58.63
2018-12-17T02:48:41.949Z,60.98
2018-12-17T02:51:09.531Z,56.15
2018-12-17T02:53:37.824Z,54.18
2018-12-17T02:56:05.930Z,59.03
2018-12-17T02:58:33.525Z,62.07
2018-12-17T03:01:00.918Z,70.55
2018-12-17T03:03:28.326Z,76.87
2018-12-17T03:05:55.809Z,64.47
2018-12-17T03:08:23.241Z,70.35
2018-12-17T03:10:50.702Z,73.37
2018-12-17T03:13:18.191Z,91.78
2018-12-17T03:15:45.576Z,57.53
2018-12-17T03:18:13.025Z,49.13
2018-12-17T03:20:40.395Z,63.02
2018-12-17T03:23:07.835Z,60.35
2018-12-17T03:25:35.367Z,52.80
2018-12-17T03:28:02.860Z,58.98
2018-12-17T03:30:30.348Z,58.52
2018-12-17T03:32:57.800Z,64.60
2018-12-17T03:35:25.325Z,66.00
2018-12-17T03:37:52.831Z,73.55
2018-12-17T03:40:20.301Z,56.20
2018-12-17T03:42:48.574Z,57.48
2018-12-17T03:45:16.290Z,54.42
2018-12-17T03:47:43.713Z,51.58
2018-12-17T03:50:11.381Z,64.00
2018-12-17T03:52:38.936Z,58.90
2018-12-17T03:55:06.404Z,75.20
2018-12-17T03:57:34.003Z,75.20
2018-12-17T04:00:01.514Z,71.85
2018-12-17T04:02:30.796Z,63.25
2018-12-17T04:05:01.259Z,57.80
2018-12-17T04:07:30.701Z,81.25
2018-12-17T04:09:58.429Z,94.60
2018-12-17T04:12:25.868Z,73.28
2018-12-17T04:14:53.290Z,68.47
2018-12-17T04:17:20.724Z,70.15
2018-12-17T04:19:48.509Z,67.47
2018-12-17T04:22:15.957Z,64.42
2018-12-17T04:24:43.546Z,76.92
2018-12-17T04:27:11.139Z,74.27
2018-12-17T04:29:38.750Z,64.72
2018-12-17T04:32:06.394Z,71.35
2018-12-17T04:34:33.934Z,74.42
2018-12-17T04:37:02.105Z,80.28
2018-12-17T04:39:29.654Z,80.17
2018-12-17T04:41:57.622Z,90.12
2018-12-17T04:44:25.093Z,89.30
2018-12-17T04:46:52.739Z,95.62
2018-12-17T04:49:20.177Z,102.07
2018-12-17T04:51:48.634Z,101.22
2018-12-17T04:54:16.273Z,73.55
2018-12-17T04:56:44.713Z,83.37
2018-12-17T04:59:14.834Z,89.87
2018-12-17T05:01:41.687Z,82.70
2018-12-17T05:04:09.178Z,98.95
2018-12-17T05:06:36.583Z,80.20
2018-12-17T05:09:05.489Z,82.90
2018-12-17T05:11:32.991Z,86.65
2018-12-17T05:14:00.465Z,96.70
2018-12-17T05:16:27.908Z,85.33
2018-12-17T05:18:55.386Z,86.00
2018-12-17T05:21:22.981Z,87.27
2018-12-17T05:23:50.423Z,88.65
2018-12-17T05:26:18.024Z,86.80
2018-12-17T05:28:45.518Z,79.72
2018-12-17T05:31:13.521Z,83.87
2018-12-17T05:33:41.155Z,91.45
2018-12-17T05:36:08.822Z,97.80
2018-12-17T05:38:36.458Z,97.72
2018-12-17T05:41:04.019Z,87.17
2018-12-17T05:43:31.615Z,88.27
2018-12-17T05:45:59.121Z,101.90
2018-12-17T05:48:27.759Z,103.83
2018-12-17T05:50:56.552Z,95.85
2018-12-17T05:53:24.228Z,91.80
2018-12-17T05:55:51.814Z,100.40
2018-12-17T05:58:19.475Z,111.32
2018-12-17T06:00:46.983Z,98.35
2018-12-17T06:03:14.479Z,84.05
2018-12-17T06:05:42.945Z,103.10
2018-12-17T06:08:12.166Z,95.03
2018-12-17T06:10:40.392Z,90.80
2018-12-17T06:13:07.926Z,100.87
2018-12-17T06:15:35.394Z,109.92
2018-12-17T06:18:03.013Z,109.25
2018-12-17T06:20:30.599Z,91.97
2018-12-17T06:22:58.081Z,114.03
2018-12-17T06:25:25.593Z,99.25
2018-12-17T06:27:53.259Z,106.60
2018-12-17T06:30:20.993Z,116.82
2018-12-17T06:32:48.582Z,105.83
2018-12-17T06:35:16.072Z,100.35
2018-12-17T06:37:43.640Z,99.13
2018-12-17T06:40:11.245Z,124.82
2018-12-17T06:42:38.919Z,112.35
2018-12-17T06:45:06.464Z,97.37
2018-12-17T06:47:33.978Z,98.27
2018-12-17T06:50:02.202Z,82.33
2018-12-17T06:52:29.778Z,97.90
2018-12-17T06:54:57.339Z,89.65
2018-12-17T06:57:24.793Z,87.85
2018-12-17T06:59:53.008Z,86.75
2018-12-17T07:02:20.790Z,94.65
2018-12-17T07:04:48.919Z,104.97
2018-12-17T07:07:16.854Z,108.52
2018-12-17T07:09:44.277Z,84.30
2018-12-17T07:12:12.627Z,89.95
2018-12-17T07:14:40.119Z,96.40
2018-12-17T07:17:08.355Z,98.05
2018-12-17T07:19:35.963Z,99.73
2018-12-17T07:22:04.113Z,88.25
2018-12-17T07:24:32.027Z,79.45
2018-12-17T07:27:02.252Z,103.05
2018-12-17T07:29:29.753Z,105.60
2018-12-17T07:31:57.306Z,87.40
2018-12-17T07:34:26.003Z,81.32
2018-12-17T07:36:53.639Z,90.67
2018-12-17T07:39:21.416Z,95.95
2018-12-17T07:41:49.454Z,101.57
2018-12-17T07:44:16.962Z,92.25
2018-12-17T07:46:45.189Z,89.00
2018-12-17T07:49:12.815Z,93.72
2018-12-17T07:51:40.260Z,102.67
2018-12-17T07:54:08.519Z,80.30
2018-12-17T07:56:36.658Z,125.75
2018-12-17T07:59:04.232Z,110.33
2018-12-17T08:01:31.715Z,116.65
2018-12-17T08:03:59.331Z,84.80
2018-12-17T08:06:26.836Z,91.55
2018-12-17T08:08:54.382Z,96.28
2018-12-17T08:11:21.854Z,84.00
2018-12-17T08:13:49.570Z,80.67
2018-12-17T08:16:18.796Z,90.53
2018-12-17T08:18:46.191Z,89.17
2018-12-17T08:21:14.233Z,84.65
2018-12-17T08:23:41.609Z,91.60
2018-12-17T08:26:09.113Z,92.47
2018-12-17T08:28:36.577Z,86.70
2018-12-17T08:31:04.174Z,71.13
2018-12-17T08:33:31.751Z,85.53
2018-12-17T08:35:59.197Z,81.78
2018-12-17T08:38:26.961Z,74.63
2018-12-17T08:40:54.405Z,80.72
2018-12-17T08:43:21.980Z,101.20
2018-12-17T08:45:50.363Z,86.53
2018-12-17T08:48:18.018Z,81.37
2018-12-17T08:50:46.327Z,83.30
2018-12-17T08:53:13.717Z,90.77
2018-12-17T08:55:41.255Z,70.63
2018-12-17T08:58:09.388Z,84.47
2018-12-17T09:00:36.841Z,91.20
2018-12-17T09:03:04.484Z,98.22
2018-12-17T09:05:31.957Z,79.30
2018-12-17T09:08:00.995Z,75.00
2018-12-17T09:10:28.562Z,97.20
2018-12-17T09:12:56.125Z,88.70
2018-12-17T09:15:23.709Z,83.80
2018-12-17T09:17:51.285Z,82.37
2018-12-17T09:20:19.020Z,78.83
2018-12-17T09:22:46.565Z,72.00
2018-12-17T09:25:14.126Z,86.53
2018-12-17T09:27:42.839Z,76.53
2018-12-17T09:30:10.667Z,71.53
2018-12-17T09:32:38.149Z,77.10
2018-12-17T09:35:05.802Z,60.13
2018-12-17T09:37:33.389Z,69.43
2018-12-17T09:40:00.886Z,73.37
2018-12-17T09:42:28.744Z,76.80
2018-12-17T09:44:56.161Z,76.70
2018-12-17T09:47:24.245Z,66.67
2018-12-17T09:49:51.727Z,67.70
2018-12-17T09:52:19.276Z,75.10
2018-12-17T09:54:46.714Z,60.10
2018-12-17T09:57:14.247Z,59.67
2018-12-17T09:59:42.401Z,68.60
2018-12-17T10:02:09.851Z,68.23
2018-12-17T10:04:37.869Z,55.73
2018-12-17T10:07:05.598Z,73.43
2018-12-17T10:09:33.705Z,60.17
2018-12-17T10:12:01.208Z,67.50
2018-12-17T10:14:28.981Z,56.87
2018-12-17T10:16:56.516Z,66.50
2018-12-17T10:19:24.000Z,59.23
2018-12-17T10:21:51.572Z,71.97
2018-12-17T10:24:19.073Z,53.80
2018-12-17T10:26:46.905Z,58.77
2018-12-17T10:29:14.333Z,60.23
2018-12-17T10:31:42.254Z,56.20
2018-12-17T10:34:09.880Z,45.27
2018-12-17T10:36:37.469Z,49.57
2018-12-17T10:39:06.692Z,46.23
2018-12-17T10:41:34.598Z,56.40
2018-12-17T10:44:02.771Z,54.90
2018-12-17T10:46:30.590Z,64.97
2018-12-17T10:48:58.164Z,58.20
2018-12-17T10:51:25.996Z,73.27
2018-12-17T10:53:54.155Z,63.87
2018-12-17T10:56:22.467Z,65.53
2018-12-17T10:58:50.115Z,55.57
2018-12-17T11:01:23.117Z,51.40
2018-12-17T11:03:54.183Z,58.57
2018-12-17T11:06:22.545Z,52.80
2018-12-17T11:08:50.379Z,53.07
2018-12-17T11:11:17.772Z,54.80
2018-12-17T11:13:45.406Z,52.83
2018-12-17T11:16:13.086Z,55.60
2018-12-17T11:18:40.586Z,56.80
2018-12-17T11:21:07.973Z,49.63
2018-12-17T11:23:35.450Z,47.60
2018-12-17T11:26:02.973Z,42.77
2018-12-17T11:28:30.472Z,62.93
2018-12-17T11:30:58.762Z,52.37
2018-12-17T11:33:26.254Z,64.57
2018-12-17T11:35:53.661Z,55.97
2018-12-17T11:38:21.693Z,52.03
2018-12-17T11:40:49.229Z,50.73
2018-12-17T11:43:16.642Z,52.97
2018-12-17T11:45:44.476Z,48.30
2018-12-17T11:48:11.932Z,52.00
2018-12-17T11:50:39.320Z,62.67
2018-12-17T11:53:06.776Z,60.13
2018-12-17T11:55:35.263Z,50.63
2018-12-17T11:58:08.451Z,59.93
2018-12-17T12:00:36.494Z,64.60
2018-12-17T12:03:04.755Z,56.80
2018-12-17T12:05:32.345Z,48.60
2018-12-17T12:08:00.412Z,56.08
2018-12-17T12:10:27.869Z,46.23
2018-12-17T12:12:55.430Z,50.50
2018-12-17T12:15:23.510Z,64.13
2018-12-17T12:17:51.128Z,49.10
2018-12-17T12:20:18.724Z,44.03
2018-12-17T12:22:46.213Z,40.63
2018-12-17T12:25:13.917Z,51.73
2018-12-17T12:27:41.315Z,49.87
2018-12-17T12:30:09.875Z,56.33
2018-12-17T12:32:37.264Z,57.53
2018-12-17T12:35:07.087Z,61.03
2018-12-17T12:37:34.790Z,54.07
2018-12-17T12:40:02.814Z,61.17
2018-12-17T12:42:31.062Z,53.33
2018-12-17T12:44:58.494Z,56.43
2018-12-17T12:47:26.116Z,50.47
2018-12-17T12:49:53.790Z,59.47
2018-12-17T12:52:21.460Z,45.33
2018-12-17T12:54:49.008Z,74.27
2018-12-17T12:57:16.498Z,48.70
2018-12-17T12:59:44.098Z,49.93
2018-12-17T13:02:11.610Z,59.50
2018-12-17T13:04:39.075Z,50.40
2018-12-17T13:07:06.705Z,55.50
2018-12-17T13:09:34.133Z,49.80
2018-12-17T13:12:02.202Z,62.17
2018-12-17T13:14:29.699Z,56.57
2018-12-17T13:16:57.369Z,60.27
2018-12-17T13:19:24.946Z,56.43
2018-12-17T13:21:54.626Z,57.03
2018-12-17T13:24:22.036Z,57.83
2018-12-17T13:26:49.789Z,62.03
2018-12-17T13:29:17.241Z,60.53
2018-12-17T13:31:44.865Z,61.10
2018-12-17T13:34:12.362Z,55.33
2018-12-17T13:36:39.905Z,56.80
2018-12-17T13:39:11.279Z,55.97
2018-12-17T13:41:38.669Z,58.27
2018-12-17T13:44:06.201Z,53.03
2018-12-17T13:46:33.637Z,52.83
2018-12-17T13:49:01.486Z,51.57
2018-12-17T13:51:33.658Z,57.87
2018-12-17T13:54:02.237Z,57.93
2018-12-17T13:56:29.704Z,58.53
2018-12-17T13:58:57.170Z,56.73
2018-12-17T14:01:24.712Z,51.53
2018-12-17T14:03:52.238Z,52.73
2018-12-17T14:06:20.382Z,65.07
2018-12-17T14:08:47.955Z,52.13
2018-12-17T14:11:16.006Z,44.97
2018-12-17T14:13:43.674Z,50.00
2018-12-17T14:16:14.897Z,66.27
2018-12-17T14:18:49.588Z,58.10
2018-12-17T14:21:22.858Z,52.17
2018-12-17T14:23:50.396Z,57.10
2018-12-17T14:26:18.015Z,70.10
2018-12-17T14:28:45.502Z,58.43
2018-12-17T14:31:13.166Z,56.40
2018-12-17T14:33:40.625Z,60.55
2018-12-17T14:36:08.096Z,67.10
2018-12-17T14:38:37.042Z,64.87
2018-12-17T14:41:05.720Z,49.23
2018-12-17T14:43:33.897Z,55.52
2018-12-17T14:46:01.910Z,50.30
2018-12-17T14:48:30.111Z,67.57
2018-12-17T14:50:57.618Z,51.27
2018-12-17T14:53:25.302Z,47.83
2018-12-17T14:55:53.036Z,53.60
2018-12-17T14:58:21.326Z,55.93
2018-12-17T15:00:49.157Z,42.30
2018-12-17T15:03:16.650Z,43.13
2018-12-17T15:05:45.133Z,42.60
2018-12-17T15:08:13.242Z,46.77
2018-12-17T15:10:40.999Z,49.60
2018-12-17T15:13:08.670Z,43.77
2018-12-17T15:15:38.978Z,44.67
2018-12-17T15:18:08.843Z,39.90
2018-12-17T15:20:37.792Z,50.07
2018-12-17T15:23:05.348Z,34.83
2018-12-17T15:25:34.105Z,40.87
2018-12-17T15:28:04.011Z,53.83
2018-12-17T15:30:34.736Z,52.40
2018-12-17T15:33:02.866Z,45.80
2018-12-17T15:35:32.592Z,61.03
2018-12-17T15:38:01.402Z,45.00
2018-12-17T15:43:15.719Z,48.60
2018-12-17T15:45:43.239Z,46.60
2018-12-17T15:48:10.834Z,48.20
2018-12-17T15:50:39.495Z,41.77
2018-12-17T15:53:08.775Z,47.20
2018-12-17T15:55:36.294Z,50.90
2018-12-17T15:58:06.144Z,52.23
2018-12-17T16:00:34.473Z,50.37
2018-12-17T16:03:02.089Z,47.30
2018-12-17T16:05:31.210Z,51.33
2018-12-17T16:07:58.995Z,46.37
2018-12-17T16:10:26.684Z,45.80
2018-12-17T16:12:56.073Z,42.20
2018-12-17T16:15:23.577Z,50.87
2018-12-17T16:17:56.668Z,47.60
2018-12-17T16:20:24.173Z,48.87
2018-12-17T16:22:51.687Z,44.83
2018-12-17T16:25:19.073Z,49.60
2018-12-17T16:27:46.515Z,44.17
2018-12-17T16:30:14.053Z,41.43
2018-12-17T16:32:41.577Z,41.60
2018-12-17T16:35:09.327Z,35.60
2018-12-17T16:37:36.835Z,36.57
2018-12-17T16:40:06.678Z,40.07
2018-12-17T16:42:34.184Z,40.07
2018-12-17T16:45:01.706Z,38.30
2018-12-17T16:47:29.394Z,43.13
2018-12-17T16:49:57.889Z,41.67
2018-12-17T16:52:25.438Z,43.07
2018-12-17T16:54:52.874Z,38.43
2018-12-17T16:57:21.857Z,47.80
2018-12-17T16:59:49.529Z,44.37
2018-12-17T17:02:17.279Z,44.80
2018-12-17T17:04:45.119Z,43.60
2018-12-17T17:07:12.628Z,40.00
2018-12-17T17:09:40.024Z,39.43
2018-12-17T17:12:07.659Z,42.33
2018-12-17T17:14:35.842Z,40.40
2018-12-17T17:17:03.635Z,40.87
2018-12-17T17:19:31.114Z,34.53
2018-12-17T17:21:58.933Z,35.27
2018-12-17T17:24:26.538Z,40.83
2018-12-17T17:26:56.360Z,36.77
2018-12-17T17:29:23.970Z,41.63
2018-12-17T17:31:58.754Z,40.27
2018-12-17T17:34:26.509Z,36.63
2018-12-17T17:36:54.048Z,38.90
2018-12-17T17:39:21.623Z,40.40
2018-12-17T17:41:49.120Z,35.20
2018-12-17T17:44:17.068Z,30.60
2018-12-17T17:46:44.571Z,40.17
2018-12-17T17:49:12.121Z,37.87
2018-12-17T17:51:39.796Z,36.53
2018-12-17T17:54:07.818Z,40.93
2018-12-17T17:56:35.398Z,32.70
2018-12-17T17:59:03.079Z,36.30
2018-12-17T18:01:30.651Z,40.10
2018-12-17T18:03:58.210Z,55.20
2018-12-17T18:06:25.886Z,35.43
2018-12-17T18:08:54.303Z,39.60
2018-12-17T18:11:21.949Z,37.13
2018-12-17T18:13:49.517Z,42.60
2018-12-17T18:16:17.238Z,45.13
2018-12-17T18:18:44.912Z,39.37
2018-12-17T18:21:13.122Z,34.03
2018-12-17T18:23:40.694Z,36.77
2018-12-17T18:26:10.432Z,38.70
2018-12-17T18:28:38.134Z,42.80
2018-12-17T18:31:05.812Z,45.77
2018-12-17T18:33:33.374Z,43.03
2018-12-17T18:36:00.867Z,37.07
2018-12-17T18:38:29.904Z,37.40
2018-12-17T18:40:57.643Z,36.50
2018-12-17T18:43:25.293Z,36.50
2018-12-17T18:45:52.948Z,33.80
2018-12-17T18:48:20.440Z,40.73
2018-12-17T18:50:48.004Z,40.80
2018-12-17T18:53:16.342Z,35.47
2018-12-17T18:55:44.122Z,47.90
2018-12-17T18:58:11.604Z,47.17
2018-12-17T19:00:39.191Z,35.53
2018-12-17T19:03:06.797Z,38.17
2018-12-17T19:05:34.398Z,40.80
2018-12-17T19:08:02.037Z,36.93
2018-12-17T19:10:34.139Z,41.13
2018-12-17T19:13:02.035Z,46.80
2018-12-17T19:15:29.587Z,40.47
2018-12-17T19:17:57.294Z,49.90
2018-12-17T19:20:24.866Z,40.90
2018-12-17T19:22:52.322Z,38.07
2018-12-17T19:25:19.782Z,36.43
2018-12-17T19:27:48.582Z,72.87
2018-12-17T19:30:16.335Z,81.67
2018-12-17T19:32:43.974Z,35.80
2018-12-17T19:35:15.781Z,39.83
2018-12-17T19:37:43.924Z,42.87
2018-12-17T19:40:11.563Z,45.33
2018-12-17T19:42:39.040Z,44.57
2018-12-17T19:45:06.811Z,68.43
2018-12-17T19:47:35.315Z,146.73
2018-12-17T19:50:03.441Z,125.50
2018-12-17T19:52:30.897Z,146.83
2018-12-17T19:54:58.356Z,80.23
2018-12-17T19:57:25.915Z,62.17
2018-12-17T19:59:53.404Z,43.60
2018-12-17T20:02:20.975Z,52.23
2018-12-17T20:04:48.973Z,39.07
2018-12-17T20:07:16.572Z,50.40
2018-12-17T20:09:44.238Z,35.23
2018-12-17T20:12:11.805Z,64.40
2018-12-17T20:14:39.292Z,182.30
2018-12-17T20:17:06.766Z,66.37
2018-12-17T20:19:34.278Z,81.60
2018-12-17T20:22:01.709Z,46.53
2018-12-17T20:24:29.981Z,33.47
2018-12-17T20:26:57.438Z,36.93
2018-12-17T20:29:24.901Z,39.37
2018-12-17T20:31:53.152Z,45.53
2018-12-17T20:34:20.809Z,40.43
2018-12-17T20:36:48.512Z,46.63
2018-12-17T20:39:17.363Z,49.97
2018-12-17T20:41:45.059Z,34.70
2018-12-17T20:44:13.756Z,37.10
2018-12-17T20:46:41.599Z,37.93
2018-12-17T20:49:09.995Z,40.73
2018-12-17T20:51:37.625Z,35.57
2018-12-17T20:54:05.081Z,41.93
2018-12-17T20:57:59.056Z,41.73
2018-12-17T21:00:27.081Z,45.83
2018-12-17T21:03:00.317Z,43.87
2018-12-17T21:05:24.598Z,40.40
2018-12-17T21:07:52.048Z,36.80
2018-12-17T21:10:19.749Z,37.27
2018-12-17T21:12:47.474Z,36.00
2018-12-17T21:15:15.040Z,33.57
2018-12-17T21:17:42.638Z,34.83
2018-12-17T21:20:10.711Z,37.25
2018-12-17T21:22:38.337Z,34.10
2018-12-17T21:25:10.636Z,40.23
2018-12-17T21:27:38.869Z,36.37
2018-12-17T21:32:46.634Z,39.63
2018-12-17T21:35:14.070Z,43.90
2018-12-17T21:37:41.747Z,45.00
2018-12-17T21:40:09.398Z,42.65
2018-12-17T21:42:37.006Z,42.40
2018-12-17T21:45:05.387Z,39.83
2018-12-17T21:47:32.987Z,42.93
2018-12-17T21:50:00.559Z,39.63
2018-12-17T21:52:28.040Z,36.10
2018-12-17T21:54:55.540Z,34.20
2018-12-17T21:57:23.128Z,35.37
2018-12-17T21:59:50.587Z,36.23
2018-12-17T22:02:18.197Z,33.27
2018-12-17T22:04:45.700Z,37.77
2018-12-17T22:07:13.271Z,40.63
2018-12-17T22:09:40.713Z,35.30
2018-12-17T22:12:08.281Z,42.80
2018-12-17T22:14:35.913Z,32.70
2018-12-17T22:17:03.615Z,38.03
2018-12-17T22:19:31.174Z,26.53
2018-12-17T22:21:58.752Z,40.67
2018-12-17T22:24:26.217Z,34.80
2018-12-17T22:26:53.678Z,34.07
2018-12-17T22:29:21.226Z,40.80
2018-12-17T22:31:48.774Z,35.23
2018-12-17T22:34:16.264Z,34.37
2018-12-17T22:36:43.790Z,33.00
2018-12-17T22:39:11.223Z,29.13
2018-12-17T22:41:38.701Z,33.50
2018-12-17T22:44:06.659Z,38.03
2018-12-17T22:46:34.121Z,38.20
2018-12-17T22:49:01.627Z,35.43
2018-12-17T22:51:29.143Z,37.13
2018-12-17T22:53:56.594Z,29.60
2018-12-17T22:56:24.252Z,39.93
2018-12-17T22:58:51.903Z,34.80
2018-12-17T23:01:19.361Z,35.60
2018-12-17T23:03:46.807Z,34.00
2018-12-17T23:06:14.359Z,59.17
2018-12-17T23:08:46.455Z,33.77
2018-12-17T23:11:19.496Z,44.47
2018-12-17T23:13:58.291Z,44.57
2018-12-17T23:16:31.448Z,35.93
2018-12-17T23:18:58.362Z,32.93
2018-12-17T23:21:25.976Z,32.20
2018-12-17T23:23:53.510Z,35.13
2018-12-17T23:26:20.947Z,33.00
2018-12-17T23:28:48.493Z,28.53
2018-12-17T23:31:16.049Z,34.87
2018-12-17T23:33:43.622Z,31.07
2018-12-17T23:36:10.988Z,39.97
2018-12-17T23:38:38.501Z,40.63
2018-12-17T23:41:05.873Z,39.13
2018-12-17T23:43:33.385Z,34.03
2018-12-17T23:46:00.962Z,37.50
2018-12-17T23:48:28.463Z,40.90
2018-12-17T23:50:55.907Z,33.83
2018-12-17T23:53:23.337Z,36.30
2018-12-17T23:55:51.209Z,35.37
2018-12-17T23:58:18.639Z,37.20
